createdAt,value
2023-05-12T00:00:01.080Z,100.0
2023-05-12T00:01:00.612Z,100.0
2023-05-12T00:02:00.620Z,100.0
2023-05-12T00:03:00.684Z,100.0
2023-05-12T00:04:00.857Z,100.0
2023-05-12T00:05:00.722Z,100.0
2023-05-12T00:06:00.915Z,100.0
2023-05-12T00:07:00.696Z,100.0
2023-05-12T00:08:00.608Z,100.0
2023-05-12T00:09:00.618Z,100.0
2023-05-12T00:10:00.840Z,100.0
2023-05-12T00:11:00.725Z,100.0
2023-05-12T00:12:01.208Z,100.0
2023-05-12T00:13:01.102Z,100.0
2023-05-12T00:14:00.669Z,100.0
2023-05-12T00:15:00.671Z,100.0
2023-05-12T00:16:01.489Z,100.0
2023-05-12T00:17:03.263Z,100.0
2023-05-12T00:18:00.721Z,100.0
2023-05-12T00:19:00.699Z,100.0
2023-05-12T00:20:00.611Z,100.0
2023-05-12T00:21:00.608Z,100.0
2023-05-12T00:22:00.926Z,100.0
2023-05-12T00:23:00.662Z,100.0
2023-05-12T00:24:00.604Z,100.0
2023-05-12T00:25:00.619Z,100.0
2023-05-12T00:26:00.707Z,100.0
2023-05-12T00:27:00.640Z,100.0
2023-05-12T00:28:00.607Z,100.0
2023-05-12T00:29:00.653Z,100.0
2023-05-12T00:30:00.623Z,100.0
2023-05-12T00:31:02.062Z,100.0
2023-05-12T00:32:00.716Z,100.0
2023-05-12T00:33:00.675Z,100.0
2023-05-12T00:34:00.628Z,100.0
2023-05-12T00:35:00.733Z,100.0
2023-05-12T00:36:00.640Z,100.0
2023-05-12T00:37:00.632Z,100.0
2023-05-12T00:38:00.604Z,100.0
2023-05-12T00:39:00.701Z,100.0
2023-05-12T00:40:00.658Z,100.0
2023-05-12T00:41:00.631Z,100.0
2023-05-12T00:42:00.636Z,100.0
2023-05-12T00:43:00.662Z,100.0
2023-05-12T00:44:00.616Z,100.0
2023-05-12T00:45:00.963Z,100.0
2023-05-12T00:46:04.043Z,100.0
2023-05-12T00:47:00.655Z,100.0
2023-05-12T00:48:00.880Z,100.0
2023-05-12T00:49:00.773Z,100.0
2023-05-12T00:50:02.603Z,100.0
2023-05-12T00:51:02.167Z,100.0
2023-05-12T00:52:01.551Z,100.0
2023-05-12T00:53:00.767Z,100.0
2023-05-12T00:54:01.242Z,100.0
2023-05-12T00:55:01.635Z,100.0
2023-05-12T00:56:00.744Z,100.0
2023-05-12T00:57:01.426Z,100.0
2023-05-12T00:58:01.421Z,100.0
2023-05-12T00:59:00.789Z,100.0
2023-05-12T01:00:00.617Z,100.0
2023-05-12T01:01:00.706Z,100.0
2023-05-12T01:02:00.924Z,100.0
2023-05-12T01:03:00.997Z,100.0
2023-05-12T01:04:01.832Z,100.0
2023-05-12T01:05:01.360Z,100.0
2023-05-12T01:06:12.277Z,100.0
2023-05-12T01:07:08.384Z,100.0
2023-05-12T01:08:02.090Z,100.0
2023-05-12T01:09:00.649Z,100.0
2023-05-12T01:10:00.731Z,100.0
2023-05-12T01:11:00.624Z,100.0
2023-05-12T01:12:00.652Z,100.0
2023-05-12T01:13:00.653Z,100.0
2023-05-12T01:14:00.717Z,100.0
2023-05-12T01:15:00.643Z,100.0
2023-05-12T01:16:02.092Z,100.0
2023-05-12T01:17:06.826Z,100.0
2023-05-12T01:18:01.635Z,100.0
2023-05-12T01:19:05.417Z,100.0
2023-05-12T01:20:05.145Z,100.0
2023-05-12T01:21:01.521Z,100.0
2023-05-12T01:22:01.066Z,100.0
2023-05-12T01:23:01.235Z,100.0
2023-05-12T01:24:06.268Z,100.0
2023-05-12T01:25:03.473Z,100.0
2023-05-12T01:26:04.214Z,100.0
2023-05-12T01:27:02.210Z,100.0
2023-05-12T01:28:02.280Z,100.0
2023-05-12T01:29:02.220Z,100.0
2023-05-12T01:30:03.440Z,100.0
2023-05-12T01:31:02.581Z,100.0
2023-05-12T01:32:00.887Z,100.0
2023-05-12T01:33:00.805Z,100.0
2023-05-12T01:34:00.607Z,100.0
2023-05-12T01:35:00.670Z,100.0
2023-05-12T01:36:00.639Z,100.0
2023-05-12T01:37:00.728Z,100.0
2023-05-12T01:38:00.931Z,100.0
2023-05-12T01:39:00.666Z,100.0
2023-05-12T01:40:01.002Z,100.0
2023-05-12T01:41:00.616Z,100.0
2023-05-12T01:42:00.725Z,100.0
2023-05-12T01:43:00.636Z,100.0
2023-05-12T01:44:00.686Z,100.0
2023-05-12T01:45:00.683Z,100.0
2023-05-12T01:46:00.662Z,100.0
2023-05-12T01:47:00.631Z,100.0
2023-05-12T01:48:00.744Z,100.0
2023-05-12T01:49:00.611Z,100.0
2023-05-12T01:50:00.684Z,100.0
2023-05-12T01:51:00.635Z,100.0
2023-05-12T01:52:00.606Z,100.0
2023-05-12T01:53:00.604Z,100.0
2023-05-12T01:54:00.635Z,100.0
2023-05-12T01:55:00.637Z,100.0
2023-05-12T01:56:00.613Z,100.0
2023-05-12T01:57:00.604Z,100.0
2023-05-12T01:58:00.705Z,100.0
2023-05-12T01:59:00.801Z,100.0
2023-05-12T02:00:00.608Z,100.0
2023-05-12T02:01:00.639Z,100.0
2023-05-12T02:02:00.701Z,100.0
2023-05-12T02:03:00.767Z,100.0
2023-05-12T02:04:00.717Z,100.0
2023-05-12T02:05:00.723Z,100.0
2023-05-12T02:06:00.609Z,100.0
2023-05-12T02:07:00.674Z,100.0
2023-05-12T02:08:00.632Z,100.0
2023-05-12T02:09:00.699Z,100.0
2023-05-12T02:10:00.614Z,100.0
2023-05-12T02:11:05.309Z,100.0
2023-05-12T02:12:00.628Z,100.0
2023-05-12T02:13:00.648Z,100.0
2023-05-12T02:14:00.676Z,100.0
2023-05-12T02:15:00.669Z,100.0
2023-05-12T02:16:01.136Z,100.0
2023-05-12T02:17:00.616Z,100.0
2023-05-12T02:18:00.933Z,100.0
2023-05-12T02:19:00.713Z,100.0
2023-05-12T02:20:00.719Z,100.0
2023-05-12T02:21:00.854Z,100.0
2023-05-12T02:22:00.625Z,100.0
2023-05-12T02:23:00.641Z,100.0
2023-05-12T02:24:00.633Z,100.0
2023-05-12T02:25:00.717Z,100.0
2023-05-12T02:26:00.614Z,100.0
2023-05-12T02:27:00.674Z,100.0
2023-05-12T02:28:00.608Z,100.0
2023-05-12T02:29:00.678Z,100.0
2023-05-12T02:30:00.699Z,100.0
2023-05-12T02:31:00.622Z,100.0
2023-05-12T02:32:00.613Z,100.0
2023-05-12T02:33:00.662Z,100.0
2023-05-12T02:34:00.622Z,100.0
2023-05-12T02:35:00.721Z,100.0
2023-05-12T02:36:00.612Z,100.0
2023-05-12T02:37:00.630Z,100.0
2023-05-12T02:38:00.640Z,100.0
2023-05-12T02:39:00.633Z,100.0
2023-05-12T02:40:00.620Z,100.0
2023-05-12T02:41:00.653Z,100.0
2023-05-12T02:42:00.606Z,100.0
2023-05-12T02:43:00.722Z,100.0
2023-05-12T02:44:00.601Z,100.0
2023-05-12T02:45:00.731Z,100.0
2023-05-12T02:46:00.785Z,100.0
2023-05-12T02:47:00.672Z,100.0
2023-05-12T02:48:00.674Z,100.0
2023-05-12T02:49:00.628Z,100.0
2023-05-12T02:50:00.675Z,100.0
2023-05-12T02:51:00.631Z,100.0
2023-05-12T02:52:00.830Z,100.0
2023-05-12T02:53:00.629Z,100.0
2023-05-12T02:54:00.604Z,100.0
2023-05-12T02:55:00.613Z,100.0
2023-05-12T02:56:00.729Z,100.0
2023-05-12T02:57:03.977Z,100.0
2023-05-12T02:58:00.688Z,100.0
2023-05-12T02:59:00.613Z,100.0
2023-05-12T03:00:01.752Z,100.0
2023-05-12T03:01:09.923Z,100.0
2023-05-12T03:02:00.720Z,100.0
2023-05-12T03:03:00.808Z,100.0
2023-05-12T03:04:00.621Z,100.0
2023-05-12T03:05:00.982Z,100.0
2023-05-12T03:06:00.636Z,100.0
2023-05-12T03:07:00.657Z,100.0
2023-05-12T03:08:00.954Z,100.0
2023-05-12T03:09:00.644Z,100.0
2023-05-12T03:10:00.753Z,100.0
2023-05-12T03:11:00.766Z,100.0
2023-05-12T03:12:00.615Z,100.0
2023-05-12T03:13:00.652Z,100.0
2023-05-12T03:14:00.666Z,100.0
2023-05-12T03:15:01.024Z,100.0
2023-05-12T03:16:00.644Z,100.0
2023-05-12T03:17:00.677Z,100.0
2023-05-12T03:18:00.634Z,100.0
2023-05-12T03:19:00.670Z,100.0
2023-05-12T03:20:01.089Z,100.0
2023-05-12T03:21:00.615Z,100.0
2023-05-12T03:22:01.119Z,100.0
2023-05-12T03:23:00.721Z,100.0
2023-05-12T03:24:00.616Z,100.0
2023-05-12T03:25:00.800Z,100.0
2023-05-12T03:26:00.657Z,100.0
2023-05-12T03:27:00.623Z,100.0
2023-05-12T03:28:01.497Z,100.0
2023-05-12T03:29:00.628Z,100.0
2023-05-12T03:30:00.919Z,100.0
2023-05-12T03:31:00.677Z,100.0
2023-05-12T03:32:00.675Z,100.0
2023-05-12T03:33:00.697Z,100.0
2023-05-12T03:34:00.799Z,100.0
2023-05-12T03:35:00.629Z,100.0
2023-05-12T03:36:00.611Z,100.0
2023-05-12T03:37:00.635Z,100.0
2023-05-12T03:38:00.648Z,100.0
2023-05-12T03:39:00.933Z,100.0
2023-05-12T03:40:00.633Z,100.0
2023-05-12T03:41:04.565Z,100.0
2023-05-12T03:42:00.610Z,100.0
2023-05-12T03:43:00.607Z,100.0
2023-05-12T03:44:00.839Z,100.0
2023-05-12T03:45:00.665Z,100.0
2023-05-12T03:46:00.797Z,100.0
2023-05-12T03:47:00.714Z,100.0
2023-05-12T03:48:00.675Z,100.0
2023-05-12T03:49:00.606Z,100.0
2023-05-12T03:50:00.673Z,100.0
2023-05-12T03:51:00.635Z,100.0
2023-05-12T03:52:00.611Z,100.0
2023-05-12T03:53:00.601Z,100.0
2023-05-12T03:54:00.616Z,100.0
2023-05-12T03:55:00.638Z,100.0
2023-05-12T03:56:04.463Z,100.0
2023-05-12T03:57:00.877Z,100.0
2023-05-12T03:58:00.611Z,100.0
2023-05-12T03:59:00.630Z,100.0
2023-05-12T04:00:01.011Z,100.0
2023-05-12T04:01:00.924Z,100.0
2023-05-12T04:02:00.709Z,100.0
2023-05-12T04:03:00.717Z,100.0
2023-05-12T04:04:00.735Z,100.0
2023-05-12T04:05:00.628Z,100.0
2023-05-12T04:06:01.539Z,100.0
2023-05-12T04:07:00.613Z,100.0
2023-05-12T04:08:00.630Z,100.0
2023-05-12T04:09:00.602Z,100.0
2023-05-12T04:10:00.626Z,100.0
2023-05-12T04:11:01.049Z,100.0
2023-05-12T04:12:00.614Z,100.0
2023-05-12T04:13:00.609Z,100.0
2023-05-12T04:14:00.631Z,100.0
2023-05-12T04:15:00.717Z,100.0
2023-05-12T04:16:00.732Z,100.0
2023-05-12T04:17:00.681Z,100.0
2023-05-12T04:18:01.304Z,100.0
2023-05-12T04:19:01.114Z,100.0
2023-05-12T04:20:00.613Z,100.0
2023-05-12T04:21:00.613Z,100.0
2023-05-12T04:22:00.609Z,100.0
2023-05-12T04:23:00.605Z,100.0
2023-05-12T04:24:00.605Z,100.0
2023-05-12T04:25:00.636Z,100.0
2023-05-12T04:26:03.118Z,100.0
2023-05-12T04:27:00.608Z,100.0
2023-05-12T04:28:00.665Z,100.0
2023-05-12T04:29:00.615Z,100.0
2023-05-12T04:30:00.610Z,100.0
2023-05-12T04:31:01.601Z,100.0
2023-05-12T04:32:00.669Z,100.0
2023-05-12T04:33:00.781Z,100.0
2023-05-12T04:34:00.618Z,100.0
2023-05-12T04:35:00.655Z,100.0
2023-05-12T04:36:00.617Z,100.0
2023-05-12T04:37:00.647Z,100.0
2023-05-12T04:38:00.789Z,100.0
2023-05-12T04:39:00.681Z,100.0
2023-05-12T04:40:00.649Z,100.0
2023-05-12T04:41:00.634Z,100.0
2023-05-12T04:42:00.622Z,100.0
2023-05-12T04:43:00.702Z,100.0
2023-05-12T04:44:00.945Z,100.0
2023-05-12T04:45:00.677Z,100.0
2023-05-12T04:46:00.954Z,100.0
2023-05-12T04:47:00.634Z,100.0
2023-05-12T04:48:00.670Z,100.0
2023-05-12T04:49:00.685Z,100.0
2023-05-12T04:50:00.728Z,100.0
2023-05-12T04:51:00.674Z,100.0
2023-05-12T04:52:00.601Z,100.0
2023-05-12T04:53:00.637Z,100.0
2023-05-12T04:54:00.619Z,100.0
2023-05-12T04:55:00.862Z,100.0
2023-05-12T04:56:00.963Z,100.0
2023-05-12T04:57:00.619Z,100.0
2023-05-12T04:58:00.616Z,100.0
2023-05-12T04:59:00.631Z,100.0
2023-05-12T05:00:00.623Z,100.0
2023-05-12T05:01:00.696Z,100.0
2023-05-12T05:02:00.885Z,100.0
2023-05-12T05:03:00.736Z,100.0
2023-05-12T05:04:00.732Z,100.0
2023-05-12T05:05:00.668Z,100.0
2023-05-12T05:06:00.647Z,100.0
2023-05-12T05:07:00.661Z,100.0
2023-05-12T05:08:00.648Z,100.0
2023-05-12T05:09:00.637Z,100.0
2023-05-12T05:10:00.667Z,100.0
2023-05-12T05:11:00.628Z,100.0
2023-05-12T05:12:00.763Z,100.0
2023-05-12T05:13:00.644Z,100.0
2023-05-12T05:14:00.647Z,100.0
2023-05-12T05:15:00.675Z,100.0
2023-05-12T05:16:00.666Z,100.0
2023-05-12T05:17:00.691Z,100.0
2023-05-12T05:18:01.910Z,100.0
2023-05-12T05:19:05.783Z,100.0
2023-05-12T05:20:00.789Z,100.0
2023-05-12T05:21:00.739Z,100.0
2023-05-12T05:22:00.635Z,100.0
2023-05-12T05:23:00.674Z,100.0
2023-05-12T05:24:00.648Z,100.0
2023-05-12T05:25:00.709Z,100.0
2023-05-12T05:26:00.645Z,100.0
2023-05-12T05:27:00.618Z,100.0
2023-05-12T05:28:00.596Z,100.0
2023-05-12T05:29:00.643Z,100.0
2023-05-12T05:30:00.717Z,100.0
2023-05-12T05:31:00.720Z,100.0
2023-05-12T05:32:00.613Z,100.0
2023-05-12T05:33:00.685Z,100.0
2023-05-12T05:34:00.647Z,98.6
2023-05-12T05:35:00.651Z,99.8
2023-05-12T05:36:00.901Z,97.7
2023-05-12T05:37:00.678Z,96.7
2023-05-12T05:38:00.678Z,95.8
2023-05-12T05:39:00.612Z,96.1
2023-05-12T05:40:00.650Z,98.7
2023-05-12T05:41:00.986Z,100.0
2023-05-12T05:42:00.644Z,100.0
2023-05-12T05:43:00.620Z,100.0
2023-05-12T05:44:00.623Z,98.0
2023-05-12T05:45:00.648Z,96.5
2023-05-12T05:46:00.614Z,93.9
2023-05-12T05:47:00.864Z,94.6
2023-05-12T05:48:00.670Z,94.8
2023-05-12T05:49:00.611Z,96.0
2023-05-12T05:50:01.115Z,96.8
2023-05-12T05:51:00.915Z,97.1
2023-05-12T05:52:00.621Z,92.8
2023-05-12T05:53:00.638Z,92.3
2023-05-12T05:54:00.627Z,95.2
2023-05-12T05:55:00.629Z,91.8
2023-05-12T05:56:00.626Z,95.3
2023-05-12T05:57:00.605Z,95.7
2023-05-12T05:58:00.612Z,95.9
2023-05-12T05:59:01.574Z,95.6
2023-05-12T06:00:00.685Z,97.5
2023-05-12T06:01:00.610Z,98.0
2023-05-12T06:02:00.729Z,97.4
2023-05-12T06:03:00.677Z,96.7
2023-05-12T06:04:00.803Z,91.2
2023-05-12T06:05:00.673Z,88.5
2023-05-12T06:06:00.796Z,88.8
2023-05-12T06:07:00.633Z,89.0
2023-05-12T06:08:00.742Z,84.2
2023-05-12T06:09:00.610Z,84.8
2023-05-12T06:10:00.668Z,83.9
2023-05-12T06:11:00.661Z,85.3
2023-05-12T06:12:00.627Z,87.0
2023-05-12T06:13:00.604Z,85.7
2023-05-12T06:14:00.608Z,82.5
2023-05-12T06:15:00.602Z,82.4
2023-05-12T06:16:00.612Z,82.3
2023-05-12T06:17:00.708Z,84.0
2023-05-12T06:18:00.757Z,85.2
2023-05-12T06:19:00.713Z,80.5
2023-05-12T06:20:00.870Z,78.5
2023-05-12T06:21:00.597Z,77.3
2023-05-12T06:22:00.764Z,77.1
2023-05-12T06:23:00.616Z,75.7
2023-05-12T06:24:00.604Z,75.0
2023-05-12T06:25:01.127Z,74.3
2023-05-12T06:26:00.625Z,74.0
2023-05-12T06:27:00.613Z,77.2
2023-05-12T06:28:00.655Z,76.5
2023-05-12T06:29:00.623Z,74.8
2023-05-12T06:30:00.758Z,77.3
2023-05-12T06:31:00.651Z,75.7
2023-05-12T06:32:00.621Z,75.3
2023-05-12T06:33:00.633Z,77.5
2023-05-12T06:34:00.781Z,74.2
2023-05-12T06:35:00.615Z,74.1
2023-05-12T06:36:00.626Z,75.6
2023-05-12T06:37:00.621Z,76.9
2023-05-12T06:38:00.678Z,74.4
2023-05-12T06:39:00.707Z,74.1
2023-05-12T06:40:00.707Z,72.3
2023-05-12T06:41:00.612Z,75.1
2023-05-12T06:42:00.621Z,78.0
2023-05-12T06:43:00.625Z,76.3
2023-05-12T06:44:00.611Z,74.5
2023-05-12T06:45:00.668Z,77.7
2023-05-12T06:46:00.634Z,82.0
2023-05-12T06:47:00.618Z,79.3
2023-05-12T06:48:00.637Z,79.1
2023-05-12T06:49:00.637Z,80.2
2023-05-12T06:50:00.634Z,80.4
2023-05-12T06:51:00.717Z,82.9
2023-05-12T06:52:00.617Z,81.8
2023-05-12T06:53:01.130Z,79.8
2023-05-12T06:54:00.619Z,78.3
2023-05-12T06:55:00.865Z,76.1
2023-05-12T06:56:00.608Z,77.5
2023-05-12T06:57:00.676Z,78.2
2023-05-12T06:58:00.824Z,78.3
2023-05-12T06:59:00.617Z,74.2
2023-05-12T07:00:00.613Z,77.0
2023-05-12T07:01:00.653Z,75.0
2023-05-12T07:02:00.735Z,71.3
2023-05-12T07:03:00.668Z,70.6
2023-05-12T07:04:00.775Z,70.6
2023-05-12T07:05:00.697Z,73.2
2023-05-12T07:06:00.651Z,73.1
2023-05-12T07:07:00.639Z,68.3
2023-05-12T07:08:00.649Z,68.9
2023-05-12T07:09:00.724Z,69.7
2023-05-12T07:10:00.622Z,71.6
2023-05-12T07:11:01.020Z,69.3
2023-05-12T07:12:00.677Z,72.9
2023-05-12T07:13:00.723Z,75.3
2023-05-12T07:14:00.632Z,75.6
2023-05-12T07:15:00.647Z,75.1
2023-05-12T07:16:00.710Z,71.8
2023-05-12T07:17:00.628Z,70.6
2023-05-12T07:18:00.653Z,71.5
2023-05-12T07:19:00.707Z,71.9
2023-05-12T07:20:00.704Z,70.7
2023-05-12T07:21:00.644Z,68.1
2023-05-12T07:22:00.640Z,68.0
2023-05-12T07:23:00.701Z,68.6
2023-05-12T07:24:00.824Z,70.3
2023-05-12T07:25:00.660Z,68.5
2023-05-12T07:26:01.892Z,70.4
2023-05-12T07:27:00.603Z,70.8
2023-05-12T07:28:00.608Z,72.0
2023-05-12T07:29:01.133Z,72.9
2023-05-12T07:30:00.644Z,73.0
2023-05-12T07:31:01.082Z,69.2
2023-05-12T07:32:00.661Z,68.1
2023-05-12T07:33:00.672Z,69.8
2023-05-12T07:34:00.692Z,67.6
2023-05-12T07:35:00.934Z,66.4
2023-05-12T07:36:00.875Z,62.3
2023-05-12T07:37:00.618Z,63.1
2023-05-12T07:38:00.616Z,62.4
2023-05-12T07:39:00.645Z,63.7
2023-05-12T07:40:00.659Z,63.8
2023-05-12T07:41:00.786Z,63.4
2023-05-12T07:42:00.649Z,63.6
2023-05-12T07:43:00.608Z,62.6
2023-05-12T07:44:00.673Z,64.7
2023-05-12T07:45:00.690Z,67.8
2023-05-12T07:46:00.646Z,64.4
2023-05-12T07:47:00.724Z,63.5
2023-05-12T07:48:00.644Z,63.6
2023-05-12T07:49:01.184Z,61.3
2023-05-12T07:50:00.795Z,60.4
2023-05-12T07:51:00.616Z,57.9
2023-05-12T07:52:00.616Z,55.8
2023-05-12T07:53:00.641Z,58.2
2023-05-12T07:54:00.646Z,59.9
2023-05-12T07:55:00.630Z,62.6
2023-05-12T07:56:00.700Z,62.5
2023-05-12T07:57:00.645Z,63.5
2023-05-12T07:58:00.775Z,63.4
2023-05-12T07:59:00.628Z,64.6
2023-05-12T08:00:00.657Z,63.2
2023-05-12T08:01:00.603Z,64.5
2023-05-12T08:02:00.833Z,63.3
2023-05-12T08:03:00.890Z,63.8
2023-05-12T08:04:00.840Z,63.6
2023-05-12T08:05:00.617Z,63.0
2023-05-12T08:06:00.640Z,62.4
2023-05-12T08:07:00.618Z,61.8
2023-05-12T08:08:00.653Z,61.1
2023-05-12T08:09:00.796Z,60.7
2023-05-12T08:10:00.995Z,60.3
2023-05-12T08:11:00.738Z,57.2
2023-05-12T08:12:00.622Z,57.9
2023-05-12T08:13:00.631Z,57.4
2023-05-12T08:14:00.797Z,56.8
2023-05-12T08:15:00.661Z,58.6
2023-05-12T08:16:00.609Z,58.4
2023-05-12T08:17:00.652Z,57.5
2023-05-12T08:18:00.668Z,57.6
2023-05-12T08:19:00.846Z,59.9
2023-05-12T08:20:01.267Z,61.2
2023-05-12T08:21:00.618Z,60.7
2023-05-12T08:22:00.621Z,61.6
2023-05-12T08:23:00.637Z,61.9
2023-05-12T08:24:00.644Z,63.0
2023-05-12T08:25:00.615Z,60.0
2023-05-12T08:26:00.642Z,57.4
2023-05-12T08:27:00.659Z,57.1
2023-05-12T08:28:01.180Z,57.2
2023-05-12T08:29:00.618Z,56.8
2023-05-12T08:30:00.659Z,57.4
2023-05-12T08:31:04.728Z,55.6
2023-05-12T08:32:01.291Z,56.1
2023-05-12T08:33:02.089Z,56.0
2023-05-12T08:34:09.749Z,57.4
2023-05-12T08:35:00.804Z,53.3
2023-05-12T08:36:01.198Z,54.3
2023-05-12T08:37:00.808Z,53.1
2023-05-12T08:38:00.919Z,54.1
2023-05-12T08:39:01.759Z,56.2
2023-05-12T08:40:00.739Z,56.2
2023-05-12T08:41:14.930Z,56.1
2023-05-12T08:42:08.963Z,56.6
2023-05-12T08:43:09.221Z,54.6
2023-05-12T08:44:01.401Z,55.8
2023-05-12T08:45:01.100Z,55.9
2023-05-12T08:46:00.927Z,55.6
2023-05-12T08:47:01.062Z,57.2
2023-05-12T08:48:02.387Z,55.3
2023-05-12T08:49:02.233Z,51.8
2023-05-12T08:50:02.377Z,52.3
2023-05-12T08:51:02.360Z,53.8
2023-05-12T08:52:01.909Z,55.7
2023-05-12T08:53:02.737Z,54.8
2023-05-12T08:54:02.860Z,55.2
2023-05-12T08:55:03.588Z,55.3
2023-05-12T08:57:09.869Z,55.2
2023-05-12T08:58:01.903Z,55.4
2023-05-12T08:59:02.032Z,55.7
2023-05-12T09:00:01.519Z,54.0
2023-05-12T09:01:03.334Z,54.4
2023-05-12T09:02:01.162Z,54.0
2023-05-12T09:03:05.275Z,54.2
2023-05-12T09:04:01.687Z,55.1
2023-05-12T09:05:00.666Z,55.6
2023-05-12T09:06:01.347Z,55.6
2023-05-12T09:07:02.054Z,55.2
2023-05-12T09:08:00.886Z,57.1
2023-05-12T09:09:01.889Z,55.5
2023-05-12T09:10:02.608Z,55.7
2023-05-12T09:11:00.950Z,55.8
2023-05-12T09:12:02.051Z,56.6
2023-05-12T09:13:07.641Z,55.9
2023-05-12T09:14:05.718Z,55.4
2023-05-12T09:15:06.045Z,53.2
2023-05-12T09:16:01.401Z,54.2
2023-05-12T09:17:03.452Z,55.1
2023-05-12T09:18:00.697Z,55.1
2023-05-12T09:19:01.243Z,54.9
2023-05-12T09:20:00.863Z,54.4
2023-05-12T09:21:00.739Z,53.2
2023-05-12T09:22:00.666Z,54.3
2023-05-12T09:23:12.122Z,54.8
2023-05-12T09:24:02.903Z,55.6
2023-05-12T09:25:00.946Z,56.3
2023-05-12T09:26:00.646Z,57.3
2023-05-12T09:27:00.646Z,55.2
2023-05-12T09:28:00.820Z,54.0
2023-05-12T09:29:06.042Z,52.1
2023-05-12T09:30:00.624Z,51.7
2023-05-12T09:31:00.650Z,50.3
2023-05-12T09:32:02.685Z,49.5
2023-05-12T09:33:05.231Z,48.3
2023-05-12T09:34:06.201Z,48.9
2023-05-12T09:35:02.057Z,49.6
2023-05-12T09:36:00.637Z,50.5
2023-05-12T09:37:03.121Z,49.4
2023-05-12T09:38:04.633Z,50.0
2023-05-12T09:39:03.987Z,48.7
2023-05-12T09:40:02.385Z,48.8
2023-05-12T09:41:00.625Z,49.7
2023-05-12T09:42:01.134Z,50.2
2023-05-12T09:43:02.033Z,50.3
2023-05-12T09:44:00.866Z,50.7
2023-05-12T09:45:05.756Z,51.5
2023-05-12T09:46:04.430Z,53.2
2023-05-12T09:47:08.153Z,54.7
2023-05-12T09:48:07.459Z,56.2
2023-05-12T09:49:01.343Z,56.9
2023-05-12T09:50:02.165Z,57.5
2023-05-12T09:51:00.629Z,57.7
2023-05-12T09:52:03.038Z,56.3
2023-05-12T09:53:00.632Z,57.0
2023-05-12T09:54:00.824Z,57.5
2023-05-12T09:55:09.388Z,58.7
2023-05-12T09:56:00.624Z,59.3
2023-05-12T09:57:03.156Z,57.3
2023-05-12T09:58:04.200Z,54.6
2023-05-12T09:59:02.973Z,53.3
2023-05-12T10:00:01.857Z,54.8
2023-05-12T10:01:18.289Z,54.7
2023-05-12T10:02:03.904Z,56.2
2023-05-12T10:03:05.070Z,57.0
2023-05-12T10:04:05.503Z,56.8
2023-05-12T10:05:04.909Z,57.5
2023-05-12T10:06:05.668Z,56.6
2023-05-12T10:07:00.768Z,55.8
2023-05-12T10:08:03.710Z,55.7
2023-05-12T10:09:15.201Z,55.3
2023-05-12T10:10:02.640Z,55.4
2023-05-12T10:11:01.564Z,52.7
2023-05-12T10:12:02.517Z,53.4
2023-05-12T10:13:00.676Z,53.6
2023-05-12T10:14:00.957Z,53.4
2023-05-12T10:15:02.332Z,53.6
2023-05-12T10:16:01.636Z,54.5
2023-05-12T10:17:00.990Z,55.6
2023-05-12T10:18:00.835Z,55.3
2023-05-12T10:19:02.302Z,55.6
2023-05-12T10:20:01.425Z,55.6
2023-05-12T10:21:01.562Z,56.7
2023-05-12T10:22:00.831Z,55.5
2023-05-12T10:23:01.263Z,54.8
2023-05-12T10:24:02.552Z,56.1
2023-05-12T10:25:00.940Z,55.1
2023-05-12T10:26:00.824Z,54.8
2023-05-12T10:27:03.752Z,54.4
2023-05-12T10:28:01.493Z,54.0
2023-05-12T10:29:01.093Z,48.9
2023-05-12T10:30:02.339Z,52.5
2023-05-12T10:31:03.898Z,51.3
2023-05-12T10:32:00.679Z,52.3
2023-05-12T10:33:00.753Z,51.5
2023-05-12T10:34:02.294Z,53.2
2023-05-12T10:35:09.647Z,53.2
2023-05-12T10:36:00.802Z,51.9
2023-05-12T10:37:03.793Z,51.8
2023-05-12T10:38:05.908Z,52.0
2023-05-12T10:39:04.448Z,51.7
2023-05-12T10:40:00.808Z,51.4
2023-05-12T10:41:04.303Z,50.2
2023-05-12T10:42:05.220Z,49.5
2023-05-12T10:43:00.807Z,49.6
2023-05-12T10:44:00.820Z,47.1
2023-05-12T10:45:00.637Z,45.8
2023-05-12T10:46:13.900Z,46.8
2023-05-12T10:47:01.201Z,47.4
2023-05-12T10:48:04.986Z,48.0
2023-05-12T10:49:03.018Z,49.4
2023-05-12T10:50:00.696Z,48.8
2023-05-12T10:51:10.624Z,49.1
2023-05-12T10:52:00.794Z,49.1
2023-05-12T10:53:00.762Z,49.4
2023-05-12T10:54:03.326Z,49.8
2023-05-12T10:55:02.034Z,48.5
2023-05-12T10:56:04.904Z,44.5
2023-05-12T10:57:01.117Z,43.9
2023-05-12T10:58:06.433Z,44.6
2023-05-12T10:59:10.920Z,43.4
2023-05-12T11:00:02.232Z,44.2
2023-05-12T11:01:08.073Z,44.6
2023-05-12T11:02:05.567Z,45.3
2023-05-12T11:03:08.183Z,46.2
2023-05-12T11:04:10.773Z,45.5
2023-05-12T11:05:02.558Z,45.7
2023-05-12T11:06:03.160Z,45.9
2023-05-12T11:07:01.324Z,46.1
2023-05-12T11:08:00.967Z,46.3
2023-05-12T11:09:01.165Z,47.7
2023-05-12T11:10:03.157Z,45.8
2023-05-12T11:11:00.722Z,45.8
2023-05-12T11:12:00.748Z,45.6
2023-05-12T11:13:01.995Z,46.1
2023-05-12T11:14:01.173Z,43.3
2023-05-12T11:15:02.421Z,44.4
2023-05-12T11:16:00.678Z,45.2
2023-05-12T11:17:01.272Z,44.9
2023-05-12T11:18:01.646Z,44.9
2023-05-12T11:19:02.362Z,45.8
2023-05-12T11:20:00.656Z,45.8
2023-05-12T11:21:08.758Z,45.3
2023-05-12T11:22:09.709Z,45.2
2023-05-12T11:23:00.636Z,44.6
2023-05-12T11:24:01.368Z,44.9
2023-05-12T11:25:08.971Z,45.0
2023-05-12T11:26:01.726Z,44.6
2023-05-12T11:27:02.422Z,45.0
2023-05-12T11:28:00.638Z,45.3
2023-05-12T11:29:02.905Z,46.3
2023-05-12T11:30:01.640Z,46.2
2023-05-12T11:31:00.656Z,46.1
2023-05-12T11:32:00.819Z,43.9
2023-05-12T11:33:01.671Z,43.5
2023-05-12T11:34:11.880Z,44.0
2023-05-12T11:35:09.005Z,43.4
2023-05-12T11:36:03.849Z,43.9
2023-05-12T11:37:02.807Z,44.2
2023-05-12T11:38:00.628Z,44.2
2023-05-12T11:39:00.630Z,44.4
2023-05-12T11:40:00.620Z,45.4
2023-05-12T11:41:00.686Z,45.6
2023-05-12T11:42:12.059Z,45.8
2023-05-12T11:43:08.663Z,46.0
2023-05-12T11:44:13.846Z,45.6
2023-05-12T11:45:00.672Z,45.7
2023-05-12T11:46:00.735Z,46.1
2023-05-12T11:47:02.138Z,46.0
2023-05-12T11:48:12.484Z,46.0
2023-05-12T11:49:00.625Z,45.7
2023-05-12T11:50:02.211Z,46.0
2023-05-12T11:51:01.383Z,45.1
2023-05-12T11:52:01.580Z,45.0
2023-05-12T11:53:00.627Z,44.0
2023-05-12T11:54:00.699Z,43.0
2023-05-12T11:55:00.796Z,43.2
2023-05-12T11:56:00.659Z,43.5
2023-05-12T11:57:00.622Z,43.7
2023-05-12T11:58:02.173Z,43.8
2023-05-12T11:59:00.765Z,43.5
2023-05-12T12:00:08.116Z,43.4
2023-05-12T12:01:09.399Z,43.7
2023-05-12T12:02:02.432Z,43.4
2023-05-12T12:03:04.788Z,43.2
2023-05-12T12:04:00.723Z,42.9
2023-05-12T12:05:00.641Z,41.6
2023-05-12T12:06:02.674Z,41.7
2023-05-12T12:07:01.250Z,41.2
2023-05-12T12:08:04.728Z,42.5
2023-05-12T12:09:00.619Z,42.1
2023-05-12T12:10:12.059Z,41.6
2023-05-12T12:11:03.462Z,41.9
2023-05-12T12:12:01.842Z,42.4
2023-05-12T12:13:00.791Z,42.3
2023-05-12T12:14:00.769Z,42.8
2023-05-12T12:15:00.630Z,42.6
2023-05-12T12:16:00.674Z,42.9
2023-05-12T12:17:01.457Z,42.9
2023-05-12T12:18:00.772Z,43.3
2023-05-12T12:19:00.689Z,42.8
2023-05-12T12:20:00.641Z,42.8
2023-05-12T12:21:00.671Z,42.3
2023-05-12T12:22:00.647Z,42.6
2023-05-12T12:23:00.674Z,42.6
2023-05-12T12:24:00.648Z,42.1
2023-05-12T12:25:01.674Z,42.0
2023-05-12T12:26:00.614Z,42.1
2023-05-12T12:27:00.660Z,42.1
2023-05-12T12:28:00.702Z,41.9
2023-05-12T12:29:00.703Z,41.5
2023-05-12T12:30:00.663Z,41.4
2023-05-12T12:31:01.050Z,41.5
2023-05-12T12:32:00.639Z,40.5
2023-05-12T12:33:00.679Z,40.1
2023-05-12T12:34:00.699Z,40.4
2023-05-12T12:35:00.684Z,40.5
2023-05-12T12:36:00.647Z,40.5
2023-05-12T12:37:00.630Z,40.5
2023-05-12T12:38:00.913Z,40.4
2023-05-12T12:39:01.710Z,40.4
2023-05-12T12:40:00.730Z,40.2
2023-05-12T12:41:00.653Z,39.7
2023-05-12T12:42:00.658Z,39.9
2023-05-12T12:43:00.673Z,40.3
2023-05-12T12:44:00.640Z,39.8
2023-05-12T12:45:02.462Z,39.4
2023-05-12T12:46:00.619Z,39.7
2023-05-12T12:47:00.683Z,39.7
2023-05-12T12:48:00.727Z,39.7
2023-05-12T12:49:00.613Z,40.0
2023-05-12T12:50:00.725Z,39.3
2023-05-12T12:51:00.759Z,40.0
2023-05-12T12:52:00.619Z,39.3
2023-05-12T12:53:00.601Z,39.6
2023-05-12T12:54:00.691Z,39.1
2023-05-12T12:55:00.618Z,39.1
2023-05-12T12:56:00.612Z,38.5
2023-05-12T12:57:00.667Z,38.7
2023-05-12T12:58:00.660Z,39.3
2023-05-12T12:59:00.624Z,39.1
2023-05-12T13:00:01.264Z,39.0
2023-05-12T13:01:00.829Z,39.2
2023-05-12T13:02:00.799Z,39.3
2023-05-12T13:03:01.047Z,39.5
2023-05-12T13:04:00.707Z,39.5
2023-05-12T13:05:00.880Z,39.8
2023-05-12T13:06:00.650Z,38.1
2023-05-12T13:07:00.625Z,37.8
2023-05-12T13:08:00.677Z,38.0